Matthews, IN (46957)

11:06 AM EDT on September 01, 2014 (GMT -0400)
WB9HLA-1 | Change Station
CLOSE
Current Station
Personal Weather Station
Location: Hartford City, IN
Elevation: 918 ft
Nearby Weather Stations

Elev 918 ft 40.46 °N, 85.37 °W | Updated 25 minutes ago

Overcast
Overcast
79.7 °F
Feels Like 82 °F
N
4.0
Wind Variable Wind from South
Gusts 12.1 mph

Today
High -- | Low -- °F
--% Chance of Precip.
Yesterday
High -- | Low -- °F
Precip. -- in
7:09 AM 8:13 PM
Waxing Crescent, 41% visible
Pressure 29.91 in
Visibility 8.0 miles
Clouds Scattered Clouds 1300 ft
Mostly Cloudy 1800 ft
Overcast 2500 ft
Heat Index 82 °F
Dew Point 65 °F
Humidity 61%
Rainfall -999.00 in
Snow Depth Not available.
UV 1 out of 12
Pollen 10.20 out of 12
Air Quality Not available.
Flu Activity Not available.
METAR KMIE 011353Z 22009G15KT 8SM SCT013 BKN018 OVC025 24/22 A2994 RMK AO2 SLP126 T02440217

More Conditions Fewer Conditions

Pressure 29.91 in
Visibility 8.0 miles
Clouds Scattered Clouds 1300 ft
Mostly Cloudy 1800 ft
Overcast 2500 ft
Heat Index 82 °F
Dew Point 65 °F
Humidity 61%
Rainfall -999.00 in
Snow Depth Not available.
UV 1 out of 12
Pollen 10.20 out of 12
Air Quality Not available.
Flu Activity Not available.
METAR KMIE 011353Z 22009G15KT 8SM SCT013 BKN018 OVC025 24/22 A2994 RMK AO2 SLP126 T02440217

More Conditions Fewer Conditions

10-Day Weather Forecast

Almanac

Astronomy

Sep. 01, 2014 Rise Set
Actual Time 7:09 AM EDT 8:13 PM EDT
Civil Twilight 6:41 AM EDT 8:41 PM EDT
Nautical Twilight 6:08 AM EDT 9:14 PM EDT
Astronomical Twilight 5:33 AM EDT 9:49 PM EDT
Moon 1:55 PM EDT No Moon Set
Length of Visible Light 14h 00m
Length of Day
13h 04m
Tomorrow will be 2m 34s shorter.
Waxing Crescent, 41% of the Moon is Illuminated
Today
Waxing Crescent
Sep 2
First Quarter
Sep 8
Full
Sep 15
Last Quarter
Sep 24
New

Today's Extremes

State Highs State Lows

Community

WunderPhotos

Upload Photos

1,749,256 photos uploaded!

Nearby

Snow Depth

Station Depth Elevation
No new snow has been reported.

Earthquake Activity

City Distance Mag. Time & Date
No recent earthquake activity has been reported nearby.
Minimum magnitude displayed is 2.5.

Coastal Water Temperatures

Place Temperature
No Stations Reporting

Nearby Weather Stations